Flugplatz Hof-Plauen

Prognose für EDQM

vom 25.01. um 00:00 UTC

Am 25.01. zwischen 00:00 UTC und 00:00 UTC

Wind 4 kt aus 200°

Sichtweite 2000 m

feuchter Dunst

bedeckt in 300 ft


Am 25.01. zwischen 00:00 UTC und 00:00 UTC zeitweise

Sichtweite 500 m

Code: FZFG

TAF EDQM 251700Z 2518/2603 20004KT 2000 BR OVC003 TEMPO 2518/2603 0500 FZFG VV001
Impressum